createdAt,value
2018-03-28T00:00:10.239Z,48.57
2018-03-28T00:02:37.798Z,49.57
2018-03-28T00:05:06.113Z,48.10
2018-03-28T00:07:33.709Z,52.03
2018-03-28T00:10:01.262Z,54.67
2018-03-28T00:12:29.578Z,48.57
2018-03-28T00:14:57.162Z,51.53
2018-03-28T00:17:24.706Z,50.47
2018-03-28T00:19:52.254Z,48.13
2018-03-28T00:22:20.606Z,50.60
2018-03-28T00:24:48.161Z,49.87
2018-03-28T00:27:15.706Z,53.60
2018-03-28T00:29:43.485Z,48.63
2018-03-28T00:32:11.041Z,52.60
2018-03-28T00:34:38.588Z,51.23
2018-03-28T00:37:06.166Z,51.33
2018-03-28T00:39:33.769Z,53.77
2018-03-28T00:42:01.314Z,55.20
2018-03-28T00:44:28.946Z,53.43
2018-03-28T00:46:56.503Z,54.00
2018-03-28T00:49:24.821Z,67.93
2018-03-28T00:51:52.405Z,59.10
2018-03-28T00:54:19.954Z,68.27
2018-03-28T00:56:47.580Z,71.70
2018-03-28T00:59:15.410Z,67.53
2018-03-28T01:01:42.962Z,66.00
2018-03-28T01:04:11.277Z,59.90
2018-03-28T01:06:39.197Z,57.70
2018-03-28T01:09:06.896Z,59.73
2018-03-28T01:11:35.212Z,60.27
2018-03-28T01:14:02.797Z,63.90
2018-03-28T01:16:30.397Z,61.47
2018-03-28T01:18:57.958Z,57.60
2018-03-28T01:21:25.541Z,53.17
2018-03-28T01:23:53.095Z,57.43
2018-03-28T01:26:20.645Z,55.83
2018-03-28T01:28:48.234Z,49.67
2018-03-28T01:31:15.785Z,55.07
2018-03-28T01:33:43.333Z,53.13
2018-03-28T01:36:10.981Z,50.53
2018-03-28T01:38:38.574Z,53.30
2018-03-28T01:41:06.133Z,54.60
2018-03-28T01:43:33.833Z,57.47
2018-03-28T01:46:01.394Z,54.87
2018-03-28T01:48:29.705Z,58.27
2018-03-28T01:50:57.300Z,58.77
2018-03-28T01:53:24.850Z,63.67
2018-03-28T01:55:52.402Z,62.60
2018-03-28T01:58:20.081Z,59.43
2018-03-28T02:00:47.694Z,61.10
2018-03-28T02:03:15.256Z,61.40
2018-03-28T02:05:42.841Z,60.63
2018-03-28T02:08:10.514Z,60.60
2018-03-28T02:10:38.065Z,60.77
2018-03-28T02:13:05.920Z,66.30
2018-03-28T02:15:33.514Z,69.97
2018-03-28T02:18:01.169Z,85.90
2018-03-28T02:20:28.790Z,86.20
2018-03-28T02:22:56.398Z,79.77
2018-03-28T02:25:24.026Z,69.67
2018-03-28T02:27:52.560Z,58.10
2018-03-28T02:30:20.106Z,45.20
2018-03-28T02:32:48.418Z,41.87
2018-03-28T02:35:16.010Z,40.87
2018-03-28T02:37:43.566Z,40.67
2018-03-28T02:40:11.180Z,36.37
2018-03-28T02:42:38.817Z,35.40
2018-03-28T02:45:07.138Z,37.20
2018-03-28T02:47:34.689Z,37.63
2018-03-28T02:50:02.281Z,37.93
2018-03-28T02:52:29.892Z,42.00
2018-03-28T02:54:57.441Z,44.47
2018-03-28T02:57:25.045Z,43.10
2018-03-28T02:59:52.590Z,40.87
2018-03-28T03:02:20.438Z,46.43
2018-03-28T03:04:48.033Z,45.93
2018-03-28T03:07:15.640Z,50.07
2018-03-28T03:09:43.185Z,49.43
2018-03-28T03:12:10.863Z,47.17
2018-03-28T03:14:38.411Z,44.73
2018-03-28T03:17:06.729Z,46.63
2018-03-28T03:19:34.383Z,41.13
2018-03-28T03:22:01.975Z,43.93
2018-03-28T03:24:29.578Z,46.37
2018-03-28T03:26:57.217Z,49.27
2018-03-28T03:29:24.845Z,48.50
2018-03-28T03:31:52.393Z,45.73
2018-03-28T03:34:19.994Z,46.70
2018-03-28T03:36:47.550Z,48.27
2018-03-28T03:39:16.157Z,49.87
2018-03-28T03:41:43.737Z,39.57
2018-03-28T03:44:11.286Z,39.47
2018-03-28T03:46:38.862Z,38.83
2018-03-28T03:49:06.446Z,37.73
2018-03-28T03:51:34.045Z,38.50
2018-03-28T03:54:01.597Z,40.00
2018-03-28T03:56:30.215Z,40.33
2018-03-28T03:58:57.771Z,38.90
2018-03-28T04:01:25.475Z,41.57
2018-03-28T04:03:53.218Z,40.67
2018-03-28T04:06:20.767Z,40.00
2018-03-28T04:08:48.338Z,40.97
2018-03-28T04:11:15.978Z,39.60
2018-03-28T04:13:43.525Z,40.60
2018-03-28T04:16:11.072Z,42.50
2018-03-28T04:18:38.658Z,39.23
2018-03-28T04:21:06.210Z,38.03
2018-03-28T04:23:33.758Z,37.30
2018-03-28T04:26:01.395Z,40.13
2018-03-28T04:28:28.962Z,39.07
2018-03-28T04:30:56.710Z,42.50
2018-03-28T04:33:24.322Z,43.30
2018-03-28T04:35:52.146Z,60.40
2018-03-28T04:38:19.872Z,42.07
2018-03-28T04:40:47.497Z,42.07
2018-03-28T04:43:15.054Z,46.33
2018-03-28T04:45:42.631Z,62.13
2018-03-28T04:48:10.365Z,54.20
2018-03-28T04:50:38.005Z,59.47
2018-03-28T04:53:05.592Z,53.90
2018-03-28T04:55:33.215Z,58.63
2018-03-28T04:58:00.873Z,57.83
2018-03-28T05:00:28.539Z,63.87
2018-03-28T05:02:56.145Z,70.83
2018-03-28T05:05:23.923Z,63.43
2018-03-28T05:07:51.493Z,65.63
2018-03-28T05:10:19.119Z,67.93
2018-03-28T05:12:46.942Z,65.30
2018-03-28T05:15:15.310Z,77.27
2018-03-28T05:17:43.048Z,81.00
2018-03-28T05:20:10.610Z,73.90
2018-03-28T05:22:38.221Z,69.97
2018-03-28T05:25:05.826Z,60.77
2018-03-28T05:27:33.504Z,90.27
2018-03-28T05:30:01.113Z,81.33
2018-03-28T05:32:28.675Z,70.13
2018-03-28T05:34:56.245Z,63.90
2018-03-28T05:37:23.793Z,97.67
2018-03-28T05:39:51.796Z,117.83
2018-03-28T05:42:19.357Z,82.60
2018-03-28T05:44:46.938Z,67.53
2018-03-28T05:47:15.285Z,66.40
2018-03-28T05:49:43.086Z,62.07
2018-03-28T05:52:10.728Z,68.97
2018-03-28T05:54:39.270Z,64.60
2018-03-28T05:57:06.818Z,72.67
2018-03-28T05:59:34.506Z,55.23
2018-03-28T06:02:02.097Z,58.50
2018-03-28T06:04:29.643Z,56.17
2018-03-28T06:06:57.438Z,54.80
2018-03-28T06:09:25.046Z,51.57
2018-03-28T06:11:52.595Z,52.53
2018-03-28T06:14:20.139Z,52.67
2018-03-28T06:16:47.717Z,55.67
2018-03-28T06:19:15.356Z,73.47
2018-03-28T06:21:42.926Z,77.53
2018-03-28T06:24:10.517Z,78.13
2018-03-28T06:26:39.119Z,80.80
2018-03-28T06:29:06.673Z,76.53
2018-03-28T06:31:35.048Z,69.73
2018-03-28T06:34:02.593Z,62.80
2018-03-28T06:36:30.166Z,57.93
2018-03-28T06:38:57.754Z,59.67
2018-03-28T06:41:25.428Z,56.70
2018-03-28T06:43:53.153Z,56.27
2018-03-28T06:46:20.740Z,57.00
2018-03-28T06:48:48.337Z,60.07
2018-03-28T06:51:16.170Z,92.47
2018-03-28T06:53:43.753Z,77.23
2018-03-28T06:56:11.306Z,60.13
2018-03-28T06:58:38.873Z,66.97
2018-03-28T07:01:06.506Z,61.80
2018-03-28T07:03:34.058Z,60.03
2018-03-28T07:06:01.670Z,58.87
2018-03-28T07:08:29.418Z,57.47
2018-03-28T07:10:56.975Z,52.50
2018-03-28T07:13:24.518Z,49.87
2018-03-28T07:15:52.101Z,45.97
2018-03-28T07:18:19.645Z,49.30
2018-03-28T07:20:47.198Z,68.00
2018-03-28T07:23:15.324Z,56.43
2018-03-28T07:25:42.865Z,59.60
2018-03-28T07:28:11.396Z,70.47
2018-03-28T07:30:39.525Z,81.30
2018-03-28T07:33:07.087Z,79.37
2018-03-28T07:35:35.701Z,80.03
2018-03-28T07:38:03.385Z,77.93
2018-03-28T07:40:30.990Z,69.97
2018-03-28T07:42:58.750Z,69.47
2018-03-28T07:45:27.131Z,62.03
2018-03-28T07:47:54.690Z,50.87
2018-03-28T07:50:22.707Z,101.67
2018-03-28T07:52:50.303Z,114.40
2018-03-28T07:55:17.858Z,86.60
2018-03-28T07:57:46.177Z,70.80
2018-03-28T08:00:13.972Z,68.47
2018-03-28T08:02:41.642Z,66.50
2018-03-28T08:05:09.194Z,75.03
2018-03-28T08:07:36.770Z,70.37
2018-03-28T08:10:04.577Z,75.03
2018-03-28T08:12:32.134Z,76.87
2018-03-28T08:15:00.806Z,67.47
2018-03-28T08:17:28.435Z,66.23
2018-03-28T08:19:56.774Z,61.47
2018-03-28T08:22:24.353Z,59.17
2018-03-28T08:24:51.898Z,51.20
2018-03-28T08:27:19.447Z,52.10
2018-03-28T08:29:47.378Z,54.53
2018-03-28T08:32:16.267Z,53.90
2018-03-28T08:34:44.649Z,57.43
2018-03-28T08:37:12.304Z,49.50
2018-03-28T08:39:39.857Z,54.53
2018-03-28T08:42:08.449Z,39.73
2018-03-28T08:44:36.067Z,39.10
2018-03-28T08:47:03.612Z,39.67
2018-03-28T08:49:31.163Z,41.40
2018-03-28T08:51:58.777Z,35.90
2018-03-28T08:54:27.091Z,46.37
2018-03-28T08:56:55.121Z,45.37
2018-03-28T08:59:23.462Z,40.30
2018-03-28T09:01:51.070Z,43.10
2018-03-28T09:04:18.586Z,41.53
2018-03-28T09:06:46.314Z,38.63
2018-03-28T09:09:14.180Z,41.57
2018-03-28T09:11:41.823Z,35.70
2018-03-28T09:14:09.408Z,39.57
2018-03-28T09:16:36.966Z,43.20
2018-03-28T09:19:04.526Z,41.30
2018-03-28T09:21:32.484Z,37.33
2018-03-28T09:24:00.114Z,46.00
2018-03-28T09:26:27.657Z,37.00
2018-03-28T09:28:56.489Z,32.70
2018-03-28T09:31:24.026Z,35.57
2018-03-28T09:33:51.610Z,31.13
2018-03-28T09:36:19.200Z,35.73
2018-03-28T09:38:46.745Z,29.63
2018-03-28T09:41:14.366Z,29.20
2018-03-28T09:43:42.065Z,34.23
2018-03-28T09:46:09.726Z,32.33
2018-03-28T09:48:37.586Z,32.70
2018-03-28T09:51:05.189Z,29.93
2018-03-28T09:53:32.725Z,29.77
2018-03-28T09:56:00.434Z,30.23
2018-03-28T09:58:29.231Z,29.30
2018-03-28T10:01:02.624Z,32.47
2018-03-28T10:03:30.215Z,26.97
2018-03-28T10:05:58.743Z,29.93
2018-03-28T10:08:26.685Z,25.80
2018-03-28T10:10:54.050Z,26.43
2018-03-28T10:13:21.723Z,25.13
2018-03-28T10:15:49.442Z,30.37
2018-03-28T10:18:17.174Z,25.70
2018-03-28T10:20:44.942Z,24.63
2018-03-28T10:23:12.488Z,23.33
2018-03-28T10:25:40.943Z,24.00
2018-03-28T10:28:09.454Z,24.97
2018-03-28T10:30:37.428Z,25.43
2018-03-28T10:33:05.166Z,30.13
2018-03-28T10:35:32.715Z,24.33
2018-03-28T10:38:00.261Z,23.73
2018-03-28T10:40:28.837Z,17.50
2018-03-28T10:42:56.366Z,16.17
2018-03-28T10:45:23.918Z,17.43
2018-03-28T10:47:51.698Z,13.97
2018-03-28T10:50:19.330Z,15.67
2018-03-28T10:52:47.706Z,14.53
2018-03-28T10:55:15.499Z,14.13
2018-03-28T10:57:43.046Z,13.70
2018-03-28T11:00:10.594Z,14.33
2018-03-28T11:02:38.262Z,12.80
2018-03-28T11:05:05.842Z,10.93
2018-03-28T11:07:33.429Z,11.73
2018-03-28T11:10:01.811Z,12.13
2018-03-28T11:12:29.379Z,13.67
2018-03-28T11:14:57.404Z,12.10
2018-03-28T11:17:26.464Z,12.67
2018-03-28T11:19:54.179Z,11.17
2018-03-28T11:22:22.503Z,11.80
2018-03-28T11:24:50.293Z,9.23
2018-03-28T11:27:17.958Z,12.03
2018-03-28T11:29:45.546Z,11.93
2018-03-28T11:32:13.498Z,12.43
2018-03-28T11:34:41.043Z,12.40
2018-03-28T11:37:08.746Z,12.73
2018-03-28T11:39:36.357Z,13.53
2018-03-28T11:42:04.286Z,13.20
2018-03-28T11:44:32.138Z,12.37
2018-03-28T11:46:59.733Z,24.73
2018-03-28T11:49:27.279Z,21.77
2018-03-28T11:51:54.849Z,19.87
2018-03-28T11:54:22.674Z,18.10
2018-03-28T11:56:50.206Z,15.57
2018-03-28T11:59:17.766Z,13.70
2018-03-28T12:01:45.357Z,12.43
2018-03-28T12:04:13.014Z,12.40
2018-03-28T12:06:40.567Z,11.63
2018-03-28T12:09:08.949Z,11.30
2018-03-28T12:11:36.554Z,10.10
2018-03-28T12:14:04.284Z,12.73
2018-03-28T12:16:32.377Z,11.17
2018-03-28T12:19:00.073Z,11.07
2018-03-28T12:21:27.663Z,11.77
2018-03-28T12:23:55.286Z,10.77
2018-03-28T12:26:22.906Z,11.70
2018-03-28T12:28:50.466Z,11.10
2018-03-28T12:31:18.060Z,12.13
2018-03-28T12:33:45.770Z,11.47
2018-03-28T12:36:13.369Z,10.93
2018-03-28T12:38:41.007Z,10.70
2018-03-28T12:41:09.111Z,10.87
2018-03-28T12:43:36.883Z,11.20
2018-03-28T12:46:04.734Z,10.60
2018-03-28T12:48:32.380Z,9.87
2018-03-28T12:51:00.104Z,9.67
2018-03-28T12:53:28.745Z,10.37
2018-03-28T12:55:56.302Z,11.30
2018-03-28T12:58:24.022Z,10.87
2018-03-28T13:00:51.976Z,11.53
2018-03-28T13:03:19.531Z,12.73
2018-03-28T13:05:47.090Z,11.57
2018-03-28T13:08:14.914Z,11.30
2018-03-28T13:10:42.602Z,10.80
2018-03-28T13:13:11.063Z,10.90
2018-03-28T13:15:39.058Z,10.50
2018-03-28T13:18:06.787Z,10.20
2018-03-28T13:20:34.445Z,10.13
2018-03-28T13:23:02.330Z,10.47
2018-03-28T13:25:29.986Z,10.43
2018-03-28T13:27:57.542Z,10.50
2018-03-28T13:30:25.145Z,11.10
2018-03-28T13:32:52.699Z,11.30
2018-03-28T13:35:20.553Z,12.83
2018-03-28T13:37:48.412Z,12.40
2018-03-28T13:40:16.173Z,12.23
2018-03-28T13:42:44.590Z,21.03
2018-03-28T13:45:12.342Z,19.73
2018-03-28T13:47:39.903Z,33.87
2018-03-28T13:50:07.455Z,52.97
2018-03-28T13:52:35.046Z,23.50
2018-03-28T13:55:02.598Z,11.27
2018-03-28T13:57:30.162Z,11.13
2018-03-28T13:59:58.825Z,12.07
2018-03-28T14:02:26.346Z,12.03
2018-03-28T14:04:54.716Z,11.97
2018-03-28T14:07:22.502Z,11.93
2018-03-28T14:09:50.106Z,12.07
2018-03-28T14:12:17.790Z,12.60
2018-03-28T14:14:45.410Z,12.43
2018-03-28T14:17:13.684Z,12.00
2018-03-28T14:19:41.373Z,19.37
2018-03-28T14:22:09.172Z,14.10
2018-03-28T14:24:36.805Z,16.97
2018-03-28T14:27:04.359Z,17.73
2018-03-28T14:29:32.133Z,25.53
2018-03-28T14:31:59.693Z,13.37
2018-03-28T14:34:27.295Z,15.67
2018-03-28T14:36:55.625Z,21.27
2018-03-28T14:39:23.250Z,24.00
2018-03-28T14:41:50.838Z,18.17
2018-03-28T14:44:18.430Z,16.73
2018-03-28T14:46:46.116Z,16.47
2018-03-28T14:49:13.663Z,40.77
2018-03-28T14:51:41.598Z,22.20
2018-03-28T14:54:09.374Z,18.80
2018-03-28T14:56:37.785Z,12.47
2018-03-28T14:59:05.443Z,11.53
2018-03-28T15:01:33.011Z,20.47
2018-03-28T15:04:00.602Z,19.60
2018-03-28T15:06:28.647Z,11.07
2018-03-28T15:08:56.691Z,10.70
2018-03-28T15:11:24.417Z,23.20
2018-03-28T15:13:52.482Z,38.93
2018-03-28T15:16:20.042Z,35.57
2018-03-28T15:18:47.614Z,35.57
2018-03-28T15:21:16.545Z,42.23
2018-03-28T15:23:44.103Z,44.67
2018-03-28T15:26:11.804Z,42.43
2018-03-28T15:28:39.883Z,41.63
2018-03-28T15:31:07.677Z,56.93
2018-03-28T15:33:35.245Z,137.50
2018-03-28T15:36:03.128Z,98.97
2018-03-28T15:38:30.682Z,81.20
2018-03-28T15:40:58.247Z,92.83
2018-03-28T15:43:26.047Z,78.07
2018-03-28T15:45:53.917Z,69.50
2018-03-28T15:48:21.469Z,58.53
2018-03-28T15:50:49.119Z,52.33
2018-03-28T15:53:16.671Z,44.30
2018-03-28T15:55:44.218Z,47.87
2018-03-28T15:58:11.859Z,54.20
2018-03-28T16:00:39.688Z,52.00
2018-03-28T16:03:08.213Z,54.70
2018-03-28T16:05:36.052Z,46.50
2018-03-28T16:08:03.626Z,59.27
2018-03-28T16:10:31.295Z,66.47
2018-03-28T16:12:58.897Z,87.80
2018-03-28T16:15:26.598Z,81.60
2018-03-28T16:17:54.261Z,57.03
2018-03-28T16:20:21.882Z,62.43
2018-03-28T16:22:50.805Z,49.53
2018-03-28T16:25:18.365Z,53.53
2018-03-28T16:27:46.198Z,52.70
2018-03-28T16:30:13.758Z,44.90
2018-03-28T16:32:41.584Z,38.03
2018-03-28T16:35:09.615Z,40.80
2018-03-28T16:37:37.944Z,43.63
2018-03-28T16:40:05.514Z,41.90
2018-03-28T16:42:33.214Z,43.87
2018-03-28T16:45:00.817Z,47.87
2018-03-28T16:47:28.454Z,59.77
2018-03-28T16:49:56.099Z,57.83
2018-03-28T16:52:23.638Z,51.30
2018-03-28T16:54:52.108Z,44.40
2018-03-28T16:57:19.689Z,74.80
2018-03-28T16:59:47.246Z,108.23
2018-03-28T17:02:15.588Z,50.13
2018-03-28T17:04:43.375Z,135.63
2018-03-28T17:07:11.716Z,115.57
2018-03-28T17:09:39.273Z,44.33
2018-03-28T17:12:07.150Z,48.57
2018-03-28T17:14:34.713Z,45.57
2018-03-28T17:17:02.281Z,42.63
2018-03-28T17:19:29.953Z,49.97
2018-03-28T17:21:57.642Z,57.40
2018-03-28T17:24:25.495Z,58.27
2018-03-28T17:26:54.093Z,45.07
2018-03-28T17:29:21.654Z,44.37
2018-03-28T17:31:49.216Z,46.67
2018-03-28T17:34:16.832Z,54.33
2018-03-28T17:36:44.433Z,59.67
2018-03-28T17:39:12.089Z,43.03
2018-03-28T17:41:40.001Z,15.37
2018-03-28T17:44:07.572Z,17.50
2018-03-28T17:46:35.468Z,14.73
2018-03-28T17:49:03.067Z,19.47
2018-03-28T17:51:30.624Z,22.23
2018-03-28T17:53:58.401Z,31.90
2018-03-28T17:56:25.998Z,60.10
2018-03-28T17:58:53.559Z,56.33
2018-03-28T18:01:21.878Z,59.10
2018-03-28T18:03:49.485Z,54.33
2018-03-28T18:06:17.830Z,57.10
2018-03-28T18:08:45.456Z,55.10
2018-03-28T18:11:13.061Z,63.07
2018-03-28T18:13:40.627Z,53.73
2018-03-28T18:16:08.186Z,56.47
2018-03-28T18:18:35.799Z,54.53
2018-03-28T18:21:03.376Z,58.23
2018-03-28T18:23:30.962Z,72.73
2018-03-28T18:25:58.632Z,80.50
2018-03-28T18:28:27.160Z,60.07
2018-03-28T18:30:54.743Z,76.67
2018-03-28T18:33:22.361Z,82.07
2018-03-28T18:35:49.931Z,74.33
2018-03-28T18:38:18.220Z,85.27
2018-03-28T18:40:45.860Z,58.37
2018-03-28T18:43:13.646Z,66.67
2018-03-28T18:45:41.221Z,92.73
2018-03-28T18:48:08.986Z,98.87
2018-03-28T18:50:36.619Z,122.53
2018-03-28T18:53:04.245Z,132.70
2018-03-28T18:55:32.364Z,122.40
2018-03-28T18:57:59.968Z,108.17
2018-03-28T19:00:28.013Z,106.87
2018-03-28T19:02:56.363Z,92.07
2018-03-28T19:05:24.001Z,91.93
2018-03-28T19:07:51.561Z,86.50
2018-03-28T19:10:19.499Z,84.00
2018-03-28T19:12:47.080Z,83.53
2018-03-28T19:15:14.671Z,82.10
2018-03-28T19:17:42.385Z,86.97
2018-03-28T19:20:10.920Z,84.60
2018-03-28T19:22:39.072Z,88.73
2018-03-28T19:25:06.667Z,104.53
2018-03-28T19:27:34.648Z,103.07
2018-03-28T19:30:03.044Z,88.50
2018-03-28T19:32:30.707Z,118.40
2018-03-28T19:34:58.315Z,112.83
2018-03-28T19:37:25.957Z,120.63
2018-03-28T19:39:53.865Z,115.17
2018-03-28T19:42:21.442Z,126.83
2018-03-28T19:44:49.774Z,123.93
2018-03-28T19:47:17.425Z,111.57
2018-03-28T19:49:45.235Z,107.93
2018-03-28T19:52:12.806Z,103.97
2018-03-28T19:54:40.412Z,99.10
2018-03-28T19:57:08.000Z,102.60
2018-03-28T19:59:35.597Z,103.73
2018-03-28T20:02:03.705Z,112.57
2018-03-28T20:04:31.568Z,114.93
2018-03-28T20:06:59.145Z,110.83
2018-03-28T20:09:27.308Z,72.17
2018-03-28T20:11:54.875Z,146.20
2018-03-28T20:14:22.449Z,169.47
2018-03-28T20:16:50.322Z,171.60
2018-03-28T20:19:17.906Z,146.40
2018-03-28T20:21:45.636Z,143.07
2018-03-28T20:24:13.244Z,136.87
2018-03-28T20:26:40.933Z,142.17
2018-03-28T20:29:08.571Z,128.23
2018-03-28T20:31:37.327Z,139.27
2018-03-28T20:34:05.655Z,134.50
2018-03-28T20:36:33.474Z,121.57
2018-03-28T20:39:01.867Z,119.03
2018-03-28T20:41:29.522Z,118.67
2018-03-28T20:43:57.105Z,121.73
2018-03-28T20:46:24.695Z,115.27
2018-03-28T20:48:52.257Z,128.37
2018-03-28T20:51:19.823Z,129.63
2018-03-28T20:53:47.544Z,129.90
2018-03-28T20:56:15.106Z,199.53
2018-03-28T20:58:42.976Z,138.97
2018-03-28T21:01:10.709Z,155.00
2018-03-28T21:03:38.394Z,147.13
2018-03-28T21:06:23.768Z,298.43
2018-03-28T21:08:51.633Z,287.37
2018-03-28T21:11:19.501Z,249.03
2018-03-28T21:13:47.366Z,245.40
2018-03-28T21:16:15.363Z,223.40
2018-03-28T21:18:42.942Z,212.10
2018-03-28T21:21:10.654Z,254.63
2018-03-28T21:23:38.256Z,262.83
2018-03-28T21:26:05.965Z,272.40
2018-03-28T21:28:33.630Z,244.57
2018-03-28T21:31:01.884Z,253.17
2018-03-28T21:33:29.654Z,232.60
2018-03-28T21:35:57.359Z,230.20
2018-03-28T21:38:24.937Z,257.00
2018-03-28T21:40:53.376Z,256.87
2018-03-28T21:43:21.189Z,252.73
2018-03-28T21:45:49.597Z,244.90
2018-03-28T21:48:17.158Z,253.33
2018-03-28T21:50:44.783Z,250.97
2018-03-28T21:53:12.600Z,244.80
2018-03-28T21:55:40.155Z,240.53
2018-03-28T21:58:07.949Z,233.53
2018-03-28T22:00:35.510Z,207.60
2018-03-28T22:03:03.280Z,188.63
2018-03-28T22:05:30.871Z,143.53
2018-03-28T22:07:58.599Z,92.80
2018-03-28T22:10:26.189Z,108.03
2018-03-28T22:12:53.956Z,102.20
2018-03-28T22:15:22.363Z,53.60
2018-03-28T22:17:50.122Z,58.10
2018-03-28T22:20:18.129Z,51.77
2018-03-28T22:22:46.056Z,70.97
2018-03-28T22:25:13.853Z,44.10
2018-03-28T22:27:41.434Z,38.13
2018-03-28T22:30:08.997Z,22.97
2018-03-28T22:32:37.606Z,38.07
2018-03-28T22:35:05.311Z,54.13
2018-03-28T22:37:33.359Z,75.27
2018-03-28T22:40:00.905Z,84.03
2018-03-28T22:42:28.501Z,73.83
2018-03-28T22:44:56.157Z,53.50
2018-03-28T22:47:23.755Z,94.87
2018-03-28T22:49:51.694Z,66.73
2018-03-28T22:52:19.363Z,63.43
2018-03-28T22:54:46.913Z,67.27
2018-03-28T22:57:14.519Z,51.77
2018-03-28T22:59:42.074Z,19.30
2018-03-28T23:02:09.684Z,21.23
2018-03-28T23:04:37.486Z,20.20
2018-03-28T23:07:05.938Z,15.20
2018-03-28T23:09:44.262Z,20.33
2018-03-28T23:12:11.904Z,17.73
2018-03-28T23:14:39.562Z,19.07
2018-03-28T23:17:07.165Z,18.87
2018-03-28T23:19:34.728Z,21.60
2018-03-28T23:22:02.287Z,20.60
2018-03-28T23:24:29.870Z,23.20
2018-03-28T23:26:57.413Z,24.53
2018-03-28T23:29:25.299Z,26.37
2018-03-28T23:31:53.066Z,26.40
2018-03-28T23:34:21.043Z,23.70
2018-03-28T23:36:48.630Z,23.80
2018-03-28T23:39:16.381Z,23.80
2018-03-28T23:41:43.950Z,22.30
2018-03-28T23:44:11.511Z,21.67
2018-03-28T23:46:39.873Z,22.00
2018-03-28T23:49:07.427Z,20.47
2018-03-28T23:51:35.018Z,22.73
2018-03-28T23:54:02.960Z,21.60
2018-03-28T23:56:30.502Z,22.53
2018-03-28T23:58:58.117Z,23.57
